createdAt,value
2023-01-09T00:08:16.785Z,9.00
2023-01-09T00:13:14.113Z,8.80
2023-01-09T00:20:36.262Z,8.60
2023-01-09T00:23:03.077Z,9.00
2023-01-09T00:35:18.900Z,9.00
2023-01-09T00:40:15.041Z,9.00
2023-01-09T00:42:44.363Z,9.00
2023-01-09T00:45:16.108Z,9.00
2023-01-09T00:47:50.224Z,9.00
2023-01-09T00:50:24.579Z,9.00
2023-01-09T00:52:53.344Z,9.00
2023-01-09T00:55:20.296Z,8.70
2023-01-09T01:10:24.837Z,9.10
2023-01-09T01:15:19.705Z,9.10
2023-01-09T01:20:16.225Z,9.10
2023-01-09T01:22:43.498Z,9.00
2023-01-09T01:25:11.340Z,9.10
2023-01-09T01:30:07.032Z,8.40
2023-01-09T01:37:27.893Z,9.10
2023-01-09T01:42:21.764Z,9.00
2023-01-09T01:45:19.743Z,8.90
2023-01-09T01:47:56.171Z,8.90
2023-01-09T01:50:29.335Z,8.80
2023-01-09T01:53:28.778Z,8.60
2023-01-09T01:55:58.394Z,8.80
2023-01-09T01:58:27.194Z,8.70
2023-01-09T02:03:25.921Z,8.50
2023-01-09T02:05:52.604Z,8.70
2023-01-09T02:08:20.185Z,8.60
2023-01-09T02:10:47.470Z,8.60
2023-01-09T02:13:14.705Z,8.50
2023-01-09T02:16:18.800Z,8.50
2023-01-09T02:18:51.937Z,8.50
2023-01-09T02:21:37.468Z,8.50
2023-01-09T02:24:36.351Z,8.40
2023-01-09T02:27:57.100Z,8.40
2023-01-09T02:30:48.889Z,8.20
2023-01-09T02:33:27.671Z,8.10
2023-01-09T02:36:10.834Z,8.10
2023-01-09T02:38:48.797Z,7.90
2023-01-09T02:41:35.746Z,8.00
2023-01-09T02:44:26.036Z,7.80
2023-01-09T02:47:06.603Z,7.80
2023-01-09T02:49:36.140Z,7.80
2023-01-09T02:52:40.651Z,7.80
2023-01-09T02:55:24.333Z,7.80
2023-01-09T03:00:34.574Z,7.70
2023-01-09T03:03:12.227Z,7.70
2023-01-09T03:05:51.178Z,7.70
2023-01-09T03:08:25.294Z,7.60
2023-01-09T03:11:07.703Z,7.60
2023-01-09T03:13:46.379Z,7.60
2023-01-09T03:16:17.864Z,7.60
2023-01-09T03:21:12.422Z,7.70
2023-01-09T03:23:54.519Z,7.60
2023-01-09T03:33:43.944Z,8.10
2023-01-09T03:36:12.451Z,7.70
2023-01-09T03:41:06.941Z,7.70
2023-01-09T03:43:33.673Z,7.60
2023-01-09T03:50:55.889Z,7.50
2023-01-09T03:53:24.378Z,7.50
2023-01-09T03:55:53.557Z,7.40
2023-01-09T03:58:21.707Z,7.30
2023-01-09T04:00:50.509Z,7.40
2023-01-09T04:03:19.105Z,7.40
2023-01-09T04:05:47.560Z,7.40
2023-01-09T04:10:48.044Z,7.40
2023-01-09T04:15:42.177Z,7.30
2023-01-09T04:32:52.349Z,7.40
2023-01-09T04:35:19.959Z,7.40
2023-01-09T04:40:14.374Z,7.50
2023-01-09T04:45:10.405Z,7.60
2023-01-09T04:50:04.541Z,7.60
2023-01-09T04:59:54.154Z,7.80
2023-01-09T05:09:43.464Z,7.70
2023-01-09T05:29:19.429Z,7.50
2023-01-09T05:36:40.423Z,7.30
2023-01-09T05:51:22.708Z,7.50
2023-01-09T06:08:32.140Z,7.20
2023-01-09T06:15:52.941Z,7.00
2023-01-09T06:40:25.259Z,7.00
2023-01-09T06:52:40.222Z,7.00
2023-01-09T06:55:07.856Z,7.10
2023-01-09T07:07:23.422Z,7.20
2023-01-09T07:14:44.442Z,6.90
2023-01-09T07:17:13.447Z,6.90
2023-01-09T07:31:56.163Z,6.70
2023-01-09T07:39:17.788Z,6.90
2023-01-09T08:03:49.262Z,6.90
2023-01-09T08:16:04.542Z,7.00
2023-01-09T08:25:53.626Z,7.10
2023-01-09T08:35:44.116Z,7.10
2023-01-09T09:03:21.720Z,7.30
2023-01-09T09:18:07.084Z,7.40
2023-01-09T09:20:36.427Z,7.40
2023-01-09T09:23:03.828Z,7.30
2023-01-09T09:30:24.739Z,7.40
2023-01-09T09:38:04.837Z,7.60
2023-01-09T09:45:59.504Z,7.60
2023-01-09T09:48:48.130Z,7.60
2023-01-09T09:51:29.469Z,7.50
2023-01-09T09:54:18.799Z,7.60
2023-01-09T09:56:52.879Z,7.70
2023-01-09T09:59:24.967Z,11.60
2023-01-09T10:02:02.329Z,7.80
2023-01-09T10:04:32.185Z,7.80
2023-01-09T10:07:06.089Z,7.70
2023-01-09T10:09:46.646Z,7.70
2023-01-09T10:12:31.750Z,7.80
2023-01-09T10:15:26.121Z,7.70
2023-01-09T10:18:30.705Z,7.70
2023-01-09T10:21:08.702Z,7.80
2023-01-09T10:24:13.418Z,7.90
2023-01-09T10:26:48.327Z,7.90
2023-01-09T10:29:41.781Z,8.00
2023-01-09T10:32:20.738Z,8.00
2023-01-09T10:35:05.328Z,8.00
2023-01-09T10:37:38.727Z,8.00
2023-01-09T10:40:18.167Z,8.00
2023-01-09T10:43:19.063Z,8.10
2023-01-09T10:45:53.969Z,8.20
2023-01-09T10:50:51.724Z,8.20
2023-01-09T10:53:38.632Z,8.20
2023-01-09T10:56:14.997Z,8.30
2023-01-09T11:01:09.603Z,8.20
2023-01-09T11:06:26.083Z,8.30
2023-01-09T11:09:03.127Z,8.30
2023-01-09T11:11:38.631Z,8.30
2023-01-09T11:14:18.307Z,8.00
2023-01-09T11:16:53.200Z,8.40
2023-01-09T11:21:47.145Z,8.20
2023-01-09T11:24:23.754Z,8.30
2023-01-09T11:26:52.688Z,8.30
2023-01-09T11:29:24.235Z,8.30
2023-01-09T11:31:56.041Z,8.30
2023-01-09T11:34:25.594Z,8.30
2023-01-09T11:36:54.800Z,8.30
2023-01-09T11:39:27.167Z,8.30
2023-01-09T11:42:02.803Z,8.30
2023-01-09T11:44:31.009Z,8.30
2023-01-09T11:46:57.886Z,8.40
2023-01-09T11:49:29.944Z,8.30
2023-01-09T11:52:20.324Z,8.40
2023-01-09T11:54:55.265Z,8.40
2023-01-09T11:57:24.144Z,8.30
2023-01-09T12:02:28.385Z,8.30
2023-01-09T12:04:56.784Z,8.30
2023-01-09T12:07:46.688Z,8.30
2023-01-09T12:10:50.829Z,8.30
2023-01-09T12:13:42.693Z,8.30
2023-01-09T12:16:21.465Z,8.30
2023-01-09T12:19:11.079Z,8.30
2023-01-09T12:21:50.585Z,8.20
2023-01-09T12:26:54.523Z,8.20
2023-01-09T12:29:32.951Z,8.30
2023-01-09T12:35:11.404Z,8.40
2023-01-09T12:37:53.501Z,8.30
2023-01-09T12:40:40.772Z,12.20
2023-01-09T12:43:49.292Z,8.30
2023-01-09T12:46:19.451Z,8.30
2023-01-09T12:51:38.446Z,8.20
2023-01-09T12:54:14.252Z,8.30
2023-01-09T12:56:50.779Z,8.30
2023-01-09T12:59:55.368Z,8.20
2023-01-09T13:02:34.240Z,8.20
2023-01-09T13:05:08.079Z,8.30
2023-01-09T13:07:53.469Z,8.30
2023-01-09T13:12:49.195Z,8.30
2023-01-09T13:15:51.149Z,8.40
2023-01-09T13:18:34.906Z,8.40
2023-01-09T13:21:02.317Z,8.30
2023-01-09T13:23:55.284Z,8.40
2023-01-09T13:26:30.366Z,8.40
2023-01-09T13:29:26.372Z,8.40
2023-01-09T13:32:39.075Z,8.40
2023-01-09T13:37:36.498Z,8.50
2023-01-09T13:40:27.797Z,8.60
2023-01-09T13:42:56.629Z,8.60
2023-01-09T13:45:26.180Z,8.70
2023-01-09T13:48:11.839Z,8.70
2023-01-09T13:50:39.416Z,8.70
2023-01-09T13:53:18.033Z,8.70
2023-01-09T13:56:02.891Z,8.60
2023-01-09T13:58:50.703Z,8.50
2023-01-09T14:01:38.161Z,8.50
2023-01-09T14:04:21.142Z,8.50
2023-01-09T14:07:19.568Z,8.40
2023-01-09T14:09:56.902Z,8.40
2023-01-09T14:14:53.727Z,8.10
2023-01-09T14:17:35.298Z,8.10
2023-01-09T14:20:07.777Z,8.10
2023-01-09T14:22:45.589Z,8.00
2023-01-09T14:25:27.175Z,8.00
2023-01-09T14:28:00.201Z,8.00
2023-01-09T14:33:25.710Z,8.00
2023-01-09T14:38:44.094Z,8.00
2023-01-09T14:41:56.357Z,8.00
2023-01-09T14:44:27.484Z,8.00
2023-01-09T14:46:56.914Z,8.10
2023-01-09T14:49:39.148Z,8.10
2023-01-09T14:52:26.085Z,8.10
2023-01-09T14:54:57.487Z,8.00
2023-01-09T14:57:33.861Z,8.10
2023-01-09T15:00:12.905Z,8.10
2023-01-09T15:05:11.067Z,8.10
2023-01-09T15:07:48.806Z,8.10
2023-01-09T15:10:20.171Z,8.10
2023-01-09T15:12:49.743Z,8.10
2023-01-09T15:15:18.352Z,8.00
2023-01-09T15:18:01.691Z,8.00
2023-01-09T15:20:31.467Z,8.00
2023-01-09T15:23:00.803Z,7.90
2023-01-09T15:25:40.668Z,7.90
2023-01-09T15:28:28.283Z,7.90
2023-01-09T15:31:16.794Z,7.90
2023-01-09T15:33:45.710Z,7.90
2023-01-09T15:36:22.334Z,7.90
2023-01-09T15:38:50.341Z,8.00
2023-01-09T15:41:42.325Z,7.90
2023-01-09T15:44:17.815Z,7.90
2023-01-09T15:46:46.491Z,7.90
2023-01-09T15:49:14.285Z,7.80
2023-01-09T15:51:44.063Z,7.90
2023-01-09T15:54:23.443Z,7.90
2023-01-09T15:59:23.333Z,7.90
2023-01-09T16:02:18.220Z,8.10
2023-01-09T16:07:15.449Z,7.80
2023-01-09T16:09:47.357Z,7.80
2023-01-09T16:12:26.925Z,7.70
2023-01-09T16:14:57.363Z,7.80
2023-01-09T16:17:26.502Z,7.80
2023-01-09T16:19:59.605Z,7.80
2023-01-09T16:25:02.808Z,7.80
2023-01-09T16:27:33.076Z,7.80
2023-01-09T16:30:01.743Z,7.80
2023-01-09T16:35:05.501Z,7.70
2023-01-09T16:37:33.066Z,7.70
2023-01-09T16:40:06.443Z,7.60
2023-01-09T16:50:14.049Z,7.70
2023-01-09T16:57:35.506Z,7.60
2023-01-09T17:07:27.872Z,7.80
2023-01-09T17:12:24.204Z,7.80
2023-01-09T17:22:14.297Z,7.90
2023-01-09T17:27:54.471Z,7.70
2023-01-09T17:30:21.921Z,7.60
2023-01-09T17:32:49.187Z,7.70
2023-01-09T17:37:43.457Z,7.60
2023-01-09T17:40:22.526Z,8.00
2023-01-09T17:42:49.292Z,7.40
2023-01-09T17:50:19.815Z,7.30
2023-01-09T17:52:47.786Z,7.30
2023-01-09T17:57:44.106Z,7.30
2023-01-09T18:00:23.901Z,7.30
2023-01-09T18:10:24.830Z,7.20
2023-01-09T18:12:53.893Z,7.20
2023-01-09T18:15:23.051Z,7.10
2023-01-09T18:27:38.483Z,7.20
2023-01-09T18:30:06.790Z,7.10
2023-01-09T18:54:38.413Z,7.10
2023-01-09T18:59:32.194Z,7.10
2023-01-09T19:02:01.361Z,7.30
2023-01-09T19:19:12.325Z,7.20
2023-01-09T19:24:06.563Z,7.10
2023-01-09T19:38:55.792Z,7.20
2023-01-09T19:46:20.016Z,7.30
2023-01-09T19:51:18.564Z,7.20
2023-01-09T19:56:18.100Z,7.20
2023-01-09T19:59:05.697Z,7.20
2023-01-09T20:01:35.415Z,7.10
2023-01-09T20:04:07.464Z,7.10
2023-01-09T20:06:35.249Z,7.10
2023-01-09T20:09:03.973Z,7.10
2023-01-09T20:11:32.149Z,7.10
2023-01-09T20:16:28.484Z,7.20
2023-01-09T20:18:57.747Z,7.20
2023-01-09T20:21:26.533Z,7.20
2023-01-09T20:23:55.742Z,7.10
2023-01-09T20:26:23.201Z,7.10
2023-01-09T20:31:18.990Z,7.20
2023-01-09T20:33:47.322Z,7.20
2023-01-09T20:36:14.787Z,7.20
2023-01-09T20:38:42.470Z,8.60
2023-01-09T20:41:22.666Z,7.20
2023-01-09T20:43:57.478Z,5.90
2023-01-09T20:46:26.560Z,7.20
2023-01-09T20:48:59.305Z,7.10
2023-01-09T20:53:55.844Z,7.10
2023-01-09T20:56:24.363Z,7.10
2023-01-09T20:58:52.005Z,7.10
2023-01-09T21:03:46.294Z,7.00
2023-01-09T21:06:15.098Z,7.00
2023-01-09T21:11:10.970Z,7.00
2023-01-09T21:13:38.429Z,6.90
2023-01-09T21:16:10.899Z,6.90
2023-01-09T21:18:37.953Z,6.90
2023-01-09T21:21:16.608Z,6.80
2023-01-09T21:23:47.824Z,6.80
2023-01-09T21:26:15.591Z,6.70
2023-01-09T21:31:14.361Z,6.80
2023-01-09T21:33:41.315Z,6.80
2023-01-09T21:36:09.073Z,6.70
2023-01-09T21:41:21.287Z,6.90
2023-01-09T21:49:20.287Z,6.80
2023-01-09T21:51:47.630Z,7.00
2023-01-09T21:59:09.021Z,7.00
2023-01-09T22:11:25.388Z,7.10
2023-01-09T22:21:17.562Z,7.00
2023-01-09T22:23:44.317Z,7.10
2023-01-09T22:26:13.191Z,7.10
2023-01-09T22:28:40.386Z,7.00
2023-01-09T22:31:18.526Z,7.10
2023-01-09T22:33:51.017Z,6.90
2023-01-09T22:36:18.659Z,7.10
2023-01-09T22:38:45.828Z,7.10
2023-01-09T22:46:11.201Z,7.10
2023-01-09T22:48:39.310Z,7.10
2023-01-09T22:51:10.207Z,7.20
2023-01-09T22:56:08.111Z,7.20
2023-01-09T23:06:07.071Z,7.10
2023-01-09T23:08:34.667Z,7.10
2023-01-09T23:11:02.546Z,7.10
2023-01-09T23:13:29.118Z,7.20
2023-01-09T23:18:23.534Z,7.20
2023-01-09T23:20:53.375Z,7.10
2023-01-09T23:23:21.835Z,7.10
2023-01-09T23:25:59.222Z,7.20
2023-01-09T23:28:27.482Z,7.20
2023-01-09T23:38:16.307Z,7.30
2023-01-09T23:40:43.033Z,7.30
2023-01-09T23:43:14.691Z,7.20
2023-01-09T23:45:44.396Z,7.30
2023-01-09T23:48:13.638Z,7.20
2023-01-09T23:50:44.677Z,7.20
2023-01-09T23:53:11.288Z,7.20
